sensor_id;sensor_type;location;lat;lon;timestamp;pressure;altitude;pressure_sealevel;temperature;humidity
55289;BME280;41154;45.394;5.734;2023-03-01T00:01:15;97236.44;;;1.82;100.00
55289;BME280;41154;45.394;5.734;2023-03-01T00:03:43;97238.00;;;1.54;100.00
55289;BME280;41154;45.394;5.734;2023-03-01T00:06:09;97241.19;;;1.50;100.00
55289;BME280;41154;45.394;5.734;2023-03-01T00:08:35;97245.28;;;1.52;100.00
55289;BME280;41154;45.394;5.734;2023-03-01T00:11:11;97248.22;;;1.42;100.00
55289;BME280;41154;45.394;5.734;2023-03-01T00:13:38;97241.09;;;1.43;100.00
55289;BME280;41154;45.394;5.734;2023-03-01T00:16:08;97249.22;;;1.41;100.00
55289;BME280;41154;45.394;5.734;2023-03-01T00:18:34;97234.44;;;1.47;100.00
55289;BME280;41154;45.394;5.734;2023-03-01T00:20:59;97232.00;;;1.46;100.00
55289;BME280;41154;45.394;5.734;2023-03-01T00:23:26;97232.38;;;1.42;100.00
55289;BME280;41154;45.394;5.734;2023-03-01T00:25:52;97231.81;;;1.47;100.00
55289;BME280;41154;45.394;5.734;2023-03-01T00:28:18;97231.00;;;1.47;100.00
55289;BME280;41154;45.394;5.734;2023-03-01T00:30:45;97230.25;;;1.53;100.00
55289;BME280;41154;45.394;5.734;2023-03-01T00:33:10;97228.25;;;1.40;100.00
55289;BME280;41154;45.394;5.734;2023-03-01T00:35:36;97221.78;;;1.42;100.00
55289;BME280;41154;45.394;5.734;2023-03-01T00:38:02;97221.34;;;1.39;100.00
55289;BME280;41154;45.394;5.734;2023-03-01T00:40:32;97220.78;;;1.43;100.00
55289;BME280;41154;45.394;5.734;2023-03-01T00:42:59;97221.53;;;1.59;100.00
55289;BME280;41154;45.394;5.734;2023-03-01T00:45:29;97214.31;;;1.68;100.00
55289;BME280;41154;45.394;5.734;2023-03-01T00:47:57;97222.56;;;1.58;100.00
55289;BME280;41154;45.394;5.734;2023-03-01T00:50:23;97218.06;;;1.73;100.00
55289;BME280;41154;45.394;5.734;2023-03-01T00:52:53;97210.19;;;1.80;100.00
55289;BME280;41154;45.394;5.734;2023-03-01T00:55:19;97215.03;;;1.76;100.00
55289;BME280;41154;45.394;5.734;2023-03-01T00:57:49;97221.00;;;1.64;100.00
55289;BME280;41154;45.394;5.734;2023-03-01T01:00:16;97215.94;;;1.47;100.00
55289;BME280;41154;45.394;5.734;2023-03-01T01:02:44;97217.50;;;1.41;100.00
55289;BME280;41154;45.394;5.734;2023-03-01T01:05:12;97213.63;;;1.59;100.00
55289;BME280;41154;45.394;5.734;2023-03-01T01:07:38;97208.72;;;1.56;100.00
55289;BME280;41154;45.394;5.734;2023-03-01T01:10:04;97208.97;;;1.61;100.00
55289;BME280;41154;45.394;5.734;2023-03-01T01:12:30;97200.53;;;1.51;100.00
55289;BME280;41154;45.394;5.734;2023-03-01T01:14:56;97200.09;;;1.47;100.00
55289;BME280;41154;45.394;5.734;2023-03-01T01:17:22;97205.56;;;1.46;100.00
55289;BME280;41154;45.394;5.734;2023-03-01T01:19:47;97206.47;;;1.53;100.00
55289;BME280;41154;45.394;5.734;2023-03-01T01:22:13;97206.19;;;1.48;100.00
55289;BME280;41154;45.394;5.734;2023-03-01T01:24:39;97202.34;;;1.50;100.00
55289;BME280;41154;45.394;5.734;2023-03-01T01:27:04;97193.56;;;1.86;100.00
55289;BME280;41154;45.394;5.734;2023-03-01T01:29:31;97198.81;;;1.43;100.00
55289;BME280;41154;45.394;5.734;2023-03-01T01:31:56;97194.81;;;1.47;100.00
55289;BME280;41154;45.394;5.734;2023-03-01T01:34:22;97191.00;;;1.35;100.00
55289;BME280;41154;45.394;5.734;2023-03-01T01:36:52;97181.75;;;1.24;100.00
55289;BME280;41154;45.394;5.734;2023-03-01T01:39:20;97183.63;;;1.30;100.00
55289;BME280;41154;45.394;5.734;2023-03-01T01:41:46;97184.25;;;1.32;100.00
55289;BME280;41154;45.394;5.734;2023-03-01T01:44:26;97193.63;;;1.50;100.00
55289;BME280;41154;45.394;5.734;2023-03-01T01:47:06;97182.81;;;1.30;100.00
55289;BME280;41154;45.394;5.734;2023-03-01T01:50:00;97182.28;;;1.19;100.00
55289;BME280;41154;45.394;5.734;2023-03-01T01:52:35;97185.50;;;1.15;100.00
55289;BME280;41154;45.394;5.734;2023-03-01T01:55:11;97178.13;;;1.47;100.00
55289;BME280;41154;45.394;5.734;2023-03-01T01:57:49;97163.88;;;1.26;100.00
55289;BME280;41154;45.394;5.734;2023-03-01T02:00:16;97163.78;;;1.19;100.00
55289;BME280;41154;45.394;5.734;2023-03-01T02:02:44;97163.31;;;0.94;100.00
55289;BME280;41154;45.394;5.734;2023-03-01T02:08:05;97171.19;;;1.09;100.00
55289;BME280;41154;45.394;5.734;2023-03-01T02:10:33;97171.19;;;1.09;100.00
55289;BME280;41154;45.394;5.734;2023-03-01T02:13:03;97162.44;;;1.23;100.00
55289;BME280;41154;45.394;5.734;2023-03-01T02:15:32;97156.63;;;1.13;100.00
55289;BME280;41154;45.394;5.734;2023-03-01T02:17:59;97155.88;;;0.83;100.00
55289;BME280;41154;45.394;5.734;2023-03-01T02:23:11;97142.19;;;0.94;100.00
55289;BME280;41154;45.394;5.734;2023-03-01T02:25:57;97146.13;;;0.68;100.00
55289;BME280;41154;45.394;5.734;2023-03-01T02:28:31;97146.78;;;0.70;100.00
55289;BME280;41154;45.394;5.734;2023-03-01T02:30:57;97139.19;;;0.82;100.00
55289;BME280;41154;45.394;5.734;2023-03-01T02:33:42;97135.84;;;0.74;100.00
55289;BME280;41154;45.394;5.734;2023-03-01T02:36:14;97136.53;;;0.82;100.00
55289;BME280;41154;45.394;5.734;2023-03-01T02:38:41;97132.50;;;0.50;100.00
55289;BME280;41154;45.394;5.734;2023-03-01T02:41:08;97136.22;;;0.70;100.00
55289;BME280;41154;45.394;5.734;2023-03-01T02:43:35;97131.94;;;0.40;100.00
55289;BME280;41154;45.394;5.734;2023-03-01T02:46:24;97120.38;;;0.70;100.00
55289;BME280;41154;45.394;5.734;2023-03-01T02:48:56;97121.03;;;0.43;100.00
55289;BME280;41154;45.394;5.734;2023-03-01T02:54:12;97117.22;;;0.45;100.00
55289;BME280;41154;45.394;5.734;2023-03-01T02:56:43;97111.81;;;0.39;100.00
55289;BME280;41154;45.394;5.734;2023-03-01T02:59:10;97114.66;;;0.52;100.00
55289;BME280;41154;45.394;5.734;2023-03-01T03:01:36;97107.84;;;0.43;100.00
55289;BME280;41154;45.394;5.734;2023-03-01T03:04:06;97106.84;;;0.44;100.00
55289;BME280;41154;45.394;5.734;2023-03-01T03:06:33;97107.75;;;0.21;100.00
55289;BME280;41154;45.394;5.734;2023-03-01T03:08:59;97101.38;;;0.30;100.00
55289;BME280;41154;45.394;5.734;2023-03-01T03:11:26;97102.66;;;0.34;100.00
55289;BME280;41154;45.394;5.734;2023-03-01T03:13:52;97100.91;;;0.42;100.00
55289;BME280;41154;45.394;5.734;2023-03-01T03:16:19;97096.09;;;0.45;100.00
55289;BME280;41154;45.394;5.734;2023-03-01T03:18:45;97092.72;;;0.07;100.00
55289;BME280;41154;45.394;5.734;2023-03-01T03:21:13;97089.34;;;0.28;100.00
55289;BME280;41154;45.394;5.734;2023-03-01T03:23:39;97097.06;;;-0.15;100.00
55289;BME280;41154;45.394;5.734;2023-03-01T03:26:05;97104.47;;;0.19;100.00
55289;BME280;41154;45.394;5.734;2023-03-01T03:28:35;97098.00;;;0.22;100.00
55289;BME280;41154;45.394;5.734;2023-03-01T03:31:01;97104.28;;;0.21;100.00
55289;BME280;41154;45.394;5.734;2023-03-01T03:33:30;97094.34;;;0.08;100.00
55289;BME280;41154;45.394;5.734;2023-03-01T03:35:56;97102.63;;;-0.10;100.00
55289;BME280;41154;45.394;5.734;2023-03-01T03:38:22;97097.34;;;0.05;100.00
55289;BME280;41154;45.394;5.734;2023-03-01T03:40:50;97094.88;;;0.03;100.00
55289;BME280;41154;45.394;5.734;2023-03-01T03:43:17;97102.34;;;-0.01;100.00
55289;BME280;41154;45.394;5.734;2023-03-01T03:45:45;97109.00;;;-0.05;100.00
55289;BME280;41154;45.394;5.734;2023-03-01T03:48:10;97095.81;;;-0.05;100.00
55289;BME280;41154;45.394;5.734;2023-03-01T03:50:38;97108.28;;;-0.37;100.00
55289;BME280;41154;45.394;5.734;2023-03-01T03:53:11;97105.38;;;-0.42;100.00
55289;BME280;41154;45.394;5.734;2023-03-01T03:55:37;97111.06;;;-0.15;100.00
55289;BME280;41154;45.394;5.734;2023-03-01T03:58:06;97101.25;;;-0.21;100.00
55289;BME280;41154;45.394;5.734;2023-03-01T04:02:57;97094.91;;;-0.12;100.00
55289;BME280;41154;45.394;5.734;2023-03-01T04:05:23;97088.16;;;-0.14;100.00
55289;BME280;41154;45.394;5.734;2023-03-01T04:07:49;97083.59;;;-0.35;100.00
55289;BME280;41154;45.394;5.734;2023-03-01T04:10:28;97090.47;;;-0.34;100.00
55289;BME280;41154;45.394;5.734;2023-03-01T04:12:54;97093.28;;;-0.36;100.00
55289;BME280;41154;45.394;5.734;2023-03-01T04:15:24;97087.34;;;-0.15;100.00
55289;BME280;41154;45.394;5.734;2023-03-01T04:17:51;97075.91;;;-0.07;100.00
55289;BME280;41154;45.394;5.734;2023-03-01T04:20:20;97084.63;;;-0.22;100.00
55289;BME280;41154;45.394;5.734;2023-03-01T04:23:00;97080.63;;;-0.56;100.00
55289;BME280;41154;45.394;5.734;2023-03-01T04:25:38;97079.22;;;-0.28;100.00
55289;BME280;41154;45.394;5.734;2023-03-01T04:28:04;97079.06;;;-0.50;100.00
55289;BME280;41154;45.394;5.734;2023-03-01T04:30:30;97083.47;;;-0.42;100.00
55289;BME280;41154;45.394;5.734;2023-03-01T04:33:05;97084.50;;;-0.66;100.00
55289;BME280;41154;45.394;5.734;2023-03-01T04:35:32;97069.56;;;-0.51;100.00
55289;BME280;41154;45.394;5.734;2023-03-01T04:37:58;97071.78;;;-0.10;100.00
55289;BME280;41154;45.394;5.734;2023-03-01T04:40:24;97071.16;;;-0.50;100.00
55289;BME280;41154;45.394;5.734;2023-03-01T04:42:50;97076.31;;;-0.33;100.00
55289;BME280;41154;45.394;5.734;2023-03-01T04:45:16;97074.19;;;-0.53;100.00
55289;BME280;41154;45.394;5.734;2023-03-01T04:47:43;97069.38;;;-0.49;100.00
55289;BME280;41154;45.394;5.734;2023-03-01T04:50:16;97071.41;;;-0.37;100.00
55289;BME280;41154;45.394;5.734;2023-03-01T04:52:43;97071.72;;;-0.55;100.00
55289;BME280;41154;45.394;5.734;2023-03-01T04:55:10;97068.31;;;-0.40;100.00
55289;BME280;41154;45.394;5.734;2023-03-01T04:57:36;97077.38;;;-0.43;100.00
55289;BME280;41154;45.394;5.734;2023-03-01T05:00:04;97062.59;;;-0.29;100.00
55289;BME280;41154;45.394;5.734;2023-03-01T05:02:56;97079.22;;;-0.28;100.00
55289;BME280;41154;45.394;5.734;2023-03-01T05:05:28;97071.41;;;-0.37;100.00
55289;BME280;41154;45.394;5.734;2023-03-01T05:07:57;97068.97;;;-0.61;100.00
55289;BME280;41154;45.394;5.734;2023-03-01T05:10:24;97064.19;;;-0.43;100.00
55289;BME280;41154;45.394;5.734;2023-03-01T05:12:50;97066.03;;;-0.28;100.00
55289;BME280;41154;45.394;5.734;2023-03-01T05:15:17;97064.91;;;-0.64;100.00
55289;BME280;41154;45.394;5.734;2023-03-01T05:17:43;97067.41;;;-0.70;100.00
55289;BME280;41154;45.394;5.734;2023-03-01T05:20:10;97070.50;;;-0.67;100.00
55289;BME280;41154;45.394;5.734;2023-03-01T05:22:36;97066.81;;;-0.58;100.00
55289;BME280;41154;45.394;5.734;2023-03-01T05:25:02;97069.31;;;-0.64;100.00
55289;BME280;41154;45.394;5.734;2023-03-01T05:27:28;97060.44;;;-0.48;100.00
55289;BME280;41154;45.394;5.734;2023-03-01T05:29:55;97067.97;;;-0.60;100.00
55289;BME280;41154;45.394;5.734;2023-03-01T05:32:21;97060.94;;;-0.30;100.00
55289;BME280;41154;45.394;5.734;2023-03-01T05:34:47;97069.97;;;-0.24;100.00
55289;BME280;41154;45.394;5.734;2023-03-01T05:37:13;97061.03;;;-0.76;100.00
55289;BME280;41154;45.394;5.734;2023-03-01T05:39:39;97064.41;;;-0.67;100.00
55289;BME280;41154;45.394;5.734;2023-03-01T05:42:06;97065.09;;;-0.50;100.00
55289;BME280;41154;45.394;5.734;2023-03-01T05:44:33;97058.47;;;-0.46;100.00
55289;BME280;41154;45.394;5.734;2023-03-01T05:46:59;97060.03;;;-0.75;100.00
55289;BME280;41154;45.394;5.734;2023-03-01T05:49:25;97066.06;;;-0.66;100.00
55289;BME280;41154;45.394;5.734;2023-03-01T05:51:53;97060.34;;;-0.70;100.00
55289;BME280;41154;45.394;5.734;2023-03-01T05:54:20;97057.88;;;-0.71;100.00
55289;BME280;41154;45.394;5.734;2023-03-01T05:56:47;97058.16;;;-0.66;100.00
55289;BME280;41154;45.394;5.734;2023-03-01T05:59:13;97052.19;;;-0.60;100.00
55289;BME280;41154;45.394;5.734;2023-03-01T06:01:41;97050.69;;;-0.78;100.00
55289;BME280;41154;45.394;5.734;2023-03-01T06:04:07;97052.81;;;-0.58;100.00
55289;BME280;41154;45.394;5.734;2023-03-01T06:06:35;97053.50;;;-0.64;100.00
55289;BME280;41154;45.394;5.734;2023-03-01T06:09:04;97053.50;;;-0.64;100.00
55289;BME280;41154;45.394;5.734;2023-03-01T06:11:29;97059.66;;;-0.72;100.00
55289;BME280;41154;45.394;5.734;2023-03-01T06:13:55;97055.81;;;-0.84;100.00
55289;BME280;41154;45.394;5.734;2023-03-01T06:16:22;97058.16;;;-0.66;100.00
55289;BME280;41154;45.394;5.734;2023-03-01T06:18:47;97057.16;;;-0.65;100.00
55289;BME280;41154;45.394;5.734;2023-03-01T06:21:13;97058.06;;;-0.58;100.00
55289;BME280;41154;45.394;5.734;2023-03-01T06:23:39;97053.31;;;-0.78;100.00
55289;BME280;41154;45.394;5.734;2023-03-01T06:26:06;97055.69;;;-0.68;100.00
55289;BME280;41154;45.394;5.734;2023-03-01T06:28:32;97058.38;;;-0.53;100.00
55289;BME280;41154;45.394;5.734;2023-03-01T06:30:58;97061.25;;;-0.86;100.00
55289;BME280;41154;45.394;5.734;2023-03-01T06:33:25;97064.06;;;-0.64;100.00
55289;BME280;41154;45.394;5.734;2023-03-01T06:35:54;97066.47;;;-0.78;100.00
55289;BME280;41154;45.394;5.734;2023-03-01T06:38:20;97065.47;;;-0.77;100.00
55289;BME280;41154;45.394;5.734;2023-03-01T06:40:52;97071.50;;;-0.91;100.00
55289;BME280;41154;45.394;5.734;2023-03-01T06:43:18;97068.88;;;-0.91;100.00
55289;BME280;41154;45.394;5.734;2023-03-01T06:45:44;97064.56;;;-0.84;100.00
55289;BME280;41154;45.394;5.734;2023-03-01T06:48:10;97068.28;;;-1.01;100.00
55289;BME280;41154;45.394;5.734;2023-03-01T06:50:37;97065.44;;;-0.92;100.00
55289;BME280;41154;45.394;5.734;2023-03-01T06:53:03;97065.63;;;-1.01;100.00
55289;BME280;41154;45.394;5.734;2023-03-01T06:55:29;97069.41;;;-0.96;100.00
55289;BME280;41154;45.394;5.734;2023-03-01T06:57:56;97073.88;;;-0.58;100.00
55289;BME280;41154;45.394;5.734;2023-03-01T07:00:22;97074.66;;;-0.96;100.00
55289;BME280;41154;45.394;5.734;2023-03-01T07:02:51;97067.47;;;-0.79;100.00
55289;BME280;41154;45.394;5.734;2023-03-01T07:05:17;97068.16;;;-0.85;100.00
55289;BME280;41154;45.394;5.734;2023-03-01T07:07:43;97074.22;;;-0.61;100.00
55289;BME280;41154;45.394;5.734;2023-03-01T07:10:09;97077.13;;;-0.71;100.00
55289;BME280;41154;45.394;5.734;2023-03-01T07:12:35;97072.72;;;-0.56;100.00
55289;BME280;41154;45.394;5.734;2023-03-01T07:15:01;97074.72;;;-0.58;100.00
55289;BME280;41154;45.394;5.734;2023-03-01T07:17:26;97068.63;;;-0.58;100.00
55289;BME280;41154;45.394;5.734;2023-03-01T07:19:52;97074.41;;;-0.86;100.00
55289;BME280;41154;45.394;5.734;2023-03-01T07:22:18;97079.75;;;-0.94;100.00
55289;BME280;41154;45.394;5.734;2023-03-01T07:24:43;97075.09;;;-0.84;100.00
55289;BME280;41154;45.394;5.734;2023-03-01T07:27:10;97073.72;;;-0.80;100.00
55289;BME280;41154;45.394;5.734;2023-03-01T07:29:36;97068.81;;;-0.83;100.00
55289;BME280;41154;45.394;5.734;2023-03-01T07:32:05;97069.03;;;-0.93;100.00
55289;BME280;41154;45.394;5.734;2023-03-01T07:34:31;97063.25;;;-0.65;100.00
55289;BME280;41154;45.394;5.734;2023-03-01T07:36:57;97066.16;;;-0.60;100.00
55289;BME280;41154;45.394;5.734;2023-03-01T07:39:22;97063.69;;;-0.61;100.00
55289;BME280;41154;45.394;5.734;2023-03-01T07:41:49;97064.91;;;-0.87;100.00
55289;BME280;41154;45.394;5.734;2023-03-01T07:44:20;97068.75;;;-0.75;100.00
55289;BME280;41154;45.394;5.734;2023-03-01T07:46:46;97064.56;;;-0.46;100.00
55289;BME280;41154;45.394;5.734;2023-03-01T07:49:11;97065.34;;;-0.60;100.00
55289;BME280;41154;45.394;5.734;2023-03-01T07:51:37;97064.06;;;-0.87;100.00
55289;BME280;41154;45.394;5.734;2023-03-01T07:54:03;97061.59;;;-0.66;100.00
55289;BME280;41154;45.394;5.734;2023-03-01T07:56:29;97064.56;;;-0.84;100.00
55289;BME280;41154;45.394;5.734;2023-03-01T07:58:54;97066.69;;;-0.64;100.00
55289;BME280;41154;45.394;5.734;2023-03-01T08:01:21;97065.91;;;-0.50;100.00
55289;BME280;41154;45.394;5.734;2023-03-01T08:03:47;97060.75;;;-0.43;100.00
55289;BME280;41154;45.394;5.734;2023-03-01T08:06:16;97063.13;;;-0.33;100.00
55289;BME280;41154;45.394;5.734;2023-03-01T08:08:43;97067.00;;;-0.82;100.00
55289;BME280;41154;45.394;5.734;2023-03-01T08:11:12;97056.66;;;-0.46;100.00
55289;BME280;41154;45.394;5.734;2023-03-01T08:13:39;97054.00;;;-0.61;100.00
55289;BME280;41154;45.394;5.734;2023-03-01T08:16:10;97056.69;;;-0.69;100.00
55289;BME280;41154;45.394;5.734;2023-03-01T08:18:36;97054.13;;;-0.39;100.00
55289;BME280;41154;45.394;5.734;2023-03-01T08:21:05;97047.47;;;-0.50;100.00
55289;BME280;41154;45.394;5.734;2023-03-01T08:23:32;97047.28;;;-0.48;100.00
55289;BME280;41154;45.394;5.734;2023-03-01T08:26:15;97046.69;;;-0.74;100.00
55289;BME280;41154;45.394;5.734;2023-03-01T08:28:42;97061.91;;;-0.84;100.00
55289;BME280;41154;45.394;5.734;2023-03-01T08:31:21;97046.44;;;-0.64;100.00
55289;BME280;41154;45.394;5.734;2023-03-01T08:33:51;97047.41;;;-0.42;100.00
55289;BME280;41154;45.394;5.734;2023-03-01T08:36:28;97053.16;;;-0.08;100.00
55289;BME280;41154;45.394;5.734;2023-03-01T08:38:54;97048.44;;;0.02;100.00
55289;BME280;41154;45.394;5.734;2023-03-01T08:41:21;97050.25;;;0.16;100.00
55289;BME280;41154;45.394;5.734;2023-03-01T08:43:47;97051.06;;;0.17;100.00
55289;BME280;41154;45.394;5.734;2023-03-01T08:46:13;97050.81;;;-0.03;100.00
55289;BME280;41154;45.394;5.734;2023-03-01T08:48:41;97048.69;;;0.37;100.00
55289;BME280;41154;45.394;5.734;2023-03-01T08:51:10;97049.34;;;0.24;100.00
55289;BME280;41154;45.394;5.734;2023-03-01T08:53:39;97049.06;;;-0.26;100.00
55289;BME280;41154;45.394;5.734;2023-03-01T08:56:06;97042.53;;;0.15;100.00
55289;BME280;41154;45.394;5.734;2023-03-01T08:58:33;97030.13;;;0.30;100.00
55289;BME280;41154;45.394;5.734;2023-03-01T09:00:59;97037.88;;;0.32;100.00
55289;BME280;41154;45.394;5.734;2023-03-01T09:03:26;97039.47;;;0.48;100.00
55289;BME280;41154;45.394;5.734;2023-03-01T09:05:52;97037.06;;;0.16;100.00
55289;BME280;41154;45.394;5.734;2023-03-01T09:08:19;97045.63;;;0.04;100.00
55289;BME280;41154;45.394;5.734;2023-03-01T09:10:45;97042.97;;;0.04;100.00
55289;BME280;41154;45.394;5.734;2023-03-01T09:13:11;97046.06;;;0.22;100.00
55289;BME280;41154;45.394;5.734;2023-03-01T09:15:38;97048.50;;;0.39;100.00
55289;BME280;41154;45.394;5.734;2023-03-01T09:18:04;97050.34;;;0.23;100.00
55289;BME280;41154;45.394;5.734;2023-03-01T09:20:31;97046.81;;;-0.14;100.00
55289;BME280;41154;45.394;5.734;2023-03-01T09:22:57;97040.88;;;-0.16;100.00
55289;BME280;41154;45.394;5.734;2023-03-01T09:25:24;97031.78;;;0.02;100.00
55289;BME280;41154;45.394;5.734;2023-03-01T09:27:53;97033.16;;;-0.17;100.00
55289;BME280;41154;45.394;5.734;2023-03-01T09:30:19;97037.53;;;0.05;100.00
55289;BME280;41154;45.394;5.734;2023-03-01T09:32:46;97032.22;;;0.50;100.00
55289;BME280;41154;45.394;5.734;2023-03-01T09:35:13;97036.50;;;0.36;100.00
55289;BME280;41154;45.394;5.734;2023-03-01T09:37:39;97030.72;;;-0.04;100.00
55289;BME280;41154;45.394;5.734;2023-03-01T09:40:15;97034.88;;;-0.10;100.00
55289;BME280;41154;45.394;5.734;2023-03-01T09:42:56;97032.25;;;0.05;100.00
55289;BME280;41154;45.394;5.734;2023-03-01T09:45:36;97033.16;;;-0.17;100.00
55289;BME280;41154;45.394;5.734;2023-03-01T09:48:14;97044.53;;;-0.02;100.00
55289;BME280;41154;45.394;5.734;2023-03-01T09:50:43;97034.63;;;0.00;100.00
55289;BME280;41154;45.394;5.734;2023-03-01T09:53:17;97025.59;;;-0.21;100.00
55289;BME280;41154;45.394;5.734;2023-03-01T09:56:03;97028.44;;;-0.07;100.00
55289;BME280;41154;45.394;5.734;2023-03-01T10:01:26;97017.13;;;0.65;100.00
55289;BME280;41154;45.394;5.734;2023-03-01T10:04:12;97023.94;;;0.75;100.00
55289;BME280;41154;45.394;5.734;2023-03-01T10:06:51;97024.84;;;0.82;100.00
55289;BME280;41154;45.394;5.734;2023-03-01T10:09:23;97026.97;;;1.15;100.00
55289;BME280;41154;45.394;5.734;2023-03-01T10:11:52;97027.97;;;0.70;100.00
55289;BME280;41154;45.394;5.734;2023-03-01T10:14:39;97026.41;;;0.40;100.00
55289;BME280;41154;45.394;5.734;2023-03-01T10:20:15;97020.44;;;0.16;100.00
55289;BME280;41154;45.394;5.734;2023-03-01T10:22:42;97020.44;;;0.16;100.00
55289;BME280;41154;45.394;5.734;2023-03-01T10:25:13;97020.31;;;0.24;100.00
55289;BME280;41154;45.394;5.734;2023-03-01T10:27:52;97014.31;;;0.67;100.00
55289;BME280;41154;45.394;5.734;2023-03-01T10:30:44;97019.47;;;0.39;100.00
55289;BME280;41154;45.394;5.734;2023-03-01T10:35:46;97015.03;;;0.39;100.00
55289;BME280;41154;45.394;5.734;2023-03-01T10:38:15;97010.25;;;0.13;100.00
55289;BME280;41154;45.394;5.734;2023-03-01T10:40:56;97017.03;;;0.74;100.00
55289;BME280;41154;45.394;5.734;2023-03-01T10:43:28;97011.00;;;0.80;100.00
55289;BME280;41154;45.394;5.734;2023-03-01T10:45:58;97007.88;;;0.91;100.00
55289;BME280;41154;45.394;5.734;2023-03-01T10:48:26;96999.56;;;0.94;100.00
55289;BME280;41154;45.394;5.734;2023-03-01T10:51:17;97005.16;;;0.84;100.00
55289;BME280;41154;45.394;5.734;2023-03-01T10:53:49;97005.66;;;0.95;100.00
55289;BME280;41154;45.394;5.734;2023-03-01T10:56:17;97000.59;;;1.21;100.00
55289;BME280;41154;45.394;5.734;2023-03-01T10:59:19;96995.28;;;1.15;100.00
55289;BME280;41154;45.394;5.734;2023-03-01T11:02:23;96988.91;;;1.31;100.00
55289;BME280;41154;45.394;5.734;2023-03-01T11:05:17;96985.94;;;0.91;100.00
55289;BME280;41154;45.394;5.734;2023-03-01T11:07:56;96985.69;;;1.35;100.00
55289;BME280;41154;45.394;5.734;2023-03-01T11:10:29;96985.56;;;0.94;100.00
55289;BME280;41154;45.394;5.734;2023-03-01T11:13:16;96979.44;;;0.50;100.00
55289;BME280;41154;45.394;5.734;2023-03-01T11:15:43;96976.78;;;0.93;100.00
55289;BME280;41154;45.394;5.734;2023-03-01T11:18:23;96983.13;;;1.20;100.00
55289;BME280;41154;45.394;5.734;2023-03-01T11:20:52;96972.41;;;1.57;100.00
55289;BME280;41154;45.394;5.734;2023-03-01T11:23:20;96972.59;;;1.55;100.00
55289;BME280;41154;45.394;5.734;2023-03-01T11:25:55;96970.81;;;1.97;100.00
55289;BME280;41154;45.394;5.734;2023-03-01T11:28:21;96966.75;;;1.03;100.00
55289;BME280;41154;45.394;5.734;2023-03-01T11:36:00;96953.72;;;1.58;100.00
55289;BME280;41154;45.394;5.734;2023-03-01T11:38:34;96950.00;;;2.36;100.00
55289;BME280;41154;45.394;5.734;2023-03-01T11:41:25;96951.47;;;1.90;100.00
55289;BME280;41154;45.394;5.734;2023-03-01T11:44:23;96943.97;;;2.56;100.00
55289;BME280;41154;45.394;5.734;2023-03-01T11:47:20;96934.75;;;1.90;100.00
55289;BME280;41154;45.394;5.734;2023-03-01T11:50:06;96943.66;;;2.24;100.00
55289;BME280;41154;45.394;5.734;2023-03-01T11:52:57;96927.91;;;2.91;100.00
55289;BME280;41154;45.394;5.734;2023-03-01T11:56:03;96927.31;;;3.15;100.00
55289;BME280;41154;45.394;5.734;2023-03-01T12:07:30;96922.38;;;2.72;100.00
55289;BME280;41154;45.394;5.734;2023-03-01T12:16:04;96913.34;;;2.40;100.00
55289;BME280;41154;45.394;5.734;2023-03-01T12:18:51;96912.44;;;2.87;100.00
55289;BME280;41154;45.394;5.734;2023-03-01T12:26:32;96903.16;;;2.37;100.00
55289;BME280;41154;45.394;5.734;2023-03-01T12:29:13;96896.50;;;2.74;100.00
55289;BME280;41154;45.394;5.734;2023-03-01T12:40:38;96879.41;;;3.10;100.00
55289;BME280;41154;45.394;5.734;2023-03-01T12:46:13;96878.19;;;2.93;100.00
55289;BME280;41154;45.394;5.734;2023-03-01T12:51:43;96871.06;;;3.00;100.00
55289;BME280;41154;45.394;5.734;2023-03-01T12:54:26;96877.97;;;3.08;100.00
55289;BME280;41154;45.394;5.734;2023-03-01T12:57:41;96873.72;;;2.93;100.00
55289;BME280;41154;45.394;5.734;2023-03-01T13:00:31;96874.69;;;3.19;100.00
55289;BME280;41154;45.394;5.734;2023-03-01T13:03:36;96874.31;;;2.88;100.00
55289;BME280;41154;45.394;5.734;2023-03-01T13:06:25;96879.19;;;2.85;100.00
55289;BME280;41154;45.394;5.734;2023-03-01T13:09:06;96877.97;;;2.87;100.00
55289;BME280;41154;45.394;5.734;2023-03-01T13:11:41;96876.16;;;2.95;100.00
55289;BME280;41154;45.394;5.734;2023-03-01T13:16:49;96873.09;;;2.98;100.00
55289;BME280;41154;45.394;5.734;2023-03-01T13:19:17;96874.66;;;2.32;100.00
55289;BME280;41154;45.394;5.734;2023-03-01T13:21:45;96872.91;;;1.91;100.00
55289;BME280;41154;45.394;5.734;2023-03-01T13:32:34;96876.34;;;2.60;100.00
55289;BME280;41154;45.394;5.734;2023-03-01T13:35:40;96873.00;;;2.24;100.00
55289;BME280;41154;45.394;5.734;2023-03-01T13:37:49;96871.25;;;2.65;100.00
55289;BME280;41154;45.394;5.734;2023-03-01T13:42:56;96861.09;;;1.80;100.00
55289;BME280;41154;45.394;5.734;2023-03-01T13:45:40;96857.53;;;2.14;100.00
55289;BME280;41154;45.394;5.734;2023-03-01T13:48:24;96853.50;;;2.45;100.00
55289;BME280;41154;45.394;5.734;2023-03-01T13:50:54;96856.88;;;1.99;100.00
55289;BME280;41154;45.394;5.734;2023-03-01T13:53:26;96862.75;;;1.88;100.00
55289;BME280;41154;45.394;5.734;2023-03-01T13:56:23;96856.78;;;2.74;100.00
55289;BME280;41154;45.394;5.734;2023-03-01T13:59:18;96856.94;;;2.26;100.00
55289;BME280;41154;45.394;5.734;2023-03-01T14:01:44;96858.09;;;1.96;100.00
55289;BME280;41154;45.394;5.734;2023-03-01T14:04:23;96852.72;;;2.51;100.00
55289;BME280;41154;45.394;5.734;2023-03-01T14:06:51;96847.41;;;2.78;100.00
55289;BME280;41154;45.394;5.734;2023-03-01T14:09:18;96855.53;;;2.23;100.00
55289;BME280;41154;45.394;5.734;2023-03-01T14:14:45;96850.63;;;2.27;100.00
55289;BME280;41154;45.394;5.734;2023-03-01T14:17:33;96861.25;;;2.40;100.00
55289;BME280;41154;45.394;5.734;2023-03-01T14:20:25;96848.19;;;2.32;100.00
55289;BME280;41154;45.394;5.734;2023-03-01T14:22:54;96842.91;;;2.52;100.00
55289;BME280;41154;45.394;5.734;2023-03-01T14:25:28;96848.44;;;2.57;100.00
55289;BME280;41154;45.394;5.734;2023-03-01T14:28:10;96850.16;;;1.96;100.00
55289;BME280;41154;45.394;5.734;2023-03-01T14:30:47;96852.06;;;1.61;100.00